Aérodrome :
LOGIN :

S'inscrire | Disclaimer

   EN    FR    IT 

 










Légende :    VFR   VFR Marginal   IFR   IFR Intensif   IFR Très Intensif
Visi : 
Plafond : 
>= 8 km
>= 3000ft
5 à 8 km
1000 à 3000 ft
1500m à 5 km
500 à 1000 ft
800 à 1500m
200 à 500 ft
< 800m
< 200 ft
Symboles :   Orages  Brouillard  Fortes neiges  Fortes précipitations  Vent > 20 kt
SIGMETs :   Divers  Orages  Givrage  Turbulence  Onde Orograph.  Cendres Volcan.






- Altitude de l'aérodrome : 218 ft
- Code IATA : LBG


LFPB - Paris / Le Bourget

DERNIER METAR :
  • 040230Z AUTO 32001KT 9999 NCD 13/10 Q1017 NOSIG

METARs EXPIRÉS :
  • 040200Z AUTO 34003KT CAVOK 13/10 Q1017 NOSIG
  • 040130Z AUTO 33003KT CAVOK 14/11 Q1017 NOSIG
  • 040100Z AUTO VRB02KT CAVOK 14/10 Q1017
  • 040030Z AUTO 00000KT CAVOK 14/10 Q1017 NOSIG
  • 040000Z AUTO 31003KT 270V350 CAVOK 15/11 Q1017 NOSIG

TAF TAF LFPB
Valide du 04 à 00h jusqu'au 05 à 00h UTC


032300Z 0400/0424 34006KT CAVOK
PROB30
TEMPO 0405/0406 4000 BR
ATIS : +33 1 48 62 43 92



MET'MAP, la Météo Aéronautique d'un coup d'oeil ! - Copyright ORBIFLY Décembre 2007 - Disclaimer

ORBIFLY MET'MAP TEAM :

Programmation & Développement : Alexandra Zaïnal
Sur une idée originale de : Baudouin d'Aumeries
Assistance à la programmation : Marc-Olivier Méhu
Soutien technique & logistique : Manuel Goepfert

Contact : metmap@orbifly.com




SOURCES & CREDITS :

   NOAA